sensor_id;sensor_type;location;lat;lon;timestamp;noise_LAeq;noise_LA_min;noise_LA_max;noise_LA01;noise_LA95
73206;Laerm;61415;55.702;37.460;2022-09-28T00:00:09;59.28;51.73;65.57;;
73206;Laerm;61415;55.702;37.460;2022-09-28T00:00:40;62.71;55.11;69.28;;
73206;Laerm;61415;55.702;37.460;2022-09-28T00:01:21;57.34;51.81;64.46;;
73206;Laerm;61415;55.702;37.460;2022-09-28T00:01:53;56.66;51.75;62.85;;
73206;Laerm;61415;55.702;37.460;2022-09-28T00:02:24;59.40;54.24;63.56;;
73206;Laerm;61415;55.702;37.460;2022-09-28T00:02:55;63.27;56.12;68.19;;
73206;Laerm;61415;55.702;37.460;2022-09-28T00:03:26;60.33;54.59;66.98;;
73206;Laerm;61415;55.702;37.460;2022-09-28T00:03:57;59.08;54.40;63.28;;
73206;Laerm;61415;55.702;37.460;2022-09-28T00:04:29;59.29;54.23;66.40;;
73206;Laerm;61415;55.702;37.460;2022-09-28T00:05:00;56.24;51.31;62.46;;
73206;Laerm;61415;55.702;37.460;2022-09-28T00:05:31;54.22;50.97;58.54;;
73206;Laerm;61415;55.702;37.460;2022-09-28T00:06:03;60.43;53.20;65.19;;
73206;Laerm;61415;55.702;37.460;2022-09-28T00:06:34;59.42;53.43;66.03;;
73206;Laerm;61415;55.702;37.460;2022-09-28T00:07:05;67.99;57.75;77.37;;
73206;Laerm;61415;55.702;37.460;2022-09-28T00:07:36;59.55;53.33;63.83;;
73206;Laerm;61415;55.702;37.460;2022-09-28T00:08:06;60.20;51.82;68.39;;
73206;Laerm;61415;55.702;37.460;2022-09-28T00:08:37;57.35;52.72;63.67;;
73206;Laerm;61415;55.702;37.460;2022-09-28T00:09:08;57.88;51.74;64.19;;
73206;Laerm;61415;55.702;37.460;2022-09-28T00:09:39;58.65;52.24;64.89;;
73206;Laerm;61415;55.702;37.460;2022-09-28T00:10:10;60.04;54.43;65.57;;
73206;Laerm;61415;55.702;37.460;2022-09-28T00:10:41;64.20;55.48;72.30;;
73206;Laerm;61415;55.702;37.460;2022-09-28T00:11:13;58.89;53.68;63.19;;
73206;Laerm;61415;55.702;37.460;2022-09-28T00:11:45;60.74;56.41;63.83;;
73206;Laerm;61415;55.702;37.460;2022-09-28T00:12:16;65.85;59.98;71.96;;
73206;Laerm;61415;55.702;37.460;2022-09-28T00:12:48;63.74;56.16;68.84;;
73206;Laerm;61415;55.702;37.460;2022-09-28T00:13:19;61.43;55.49;67.29;;
73206;Laerm;61415;55.702;37.460;2022-09-28T00:13:51;58.29;53.15;61.98;;
73206;Laerm;61415;55.702;37.460;2022-09-28T00:14:22;60.26;56.14;64.50;;
73206;Laerm;61415;55.702;37.460;2022-09-28T00:14:53;60.61;56.48;65.36;;
73206;Laerm;61415;55.702;37.460;2022-09-28T00:15:25;59.74;53.96;66.44;;
73206;Laerm;61415;55.702;37.460;2022-09-28T00:16:02;59.24;54.02;63.79;;
73206;Laerm;61415;55.702;37.460;2022-09-28T00:16:34;62.95;52.93;71.60;;
73206;Laerm;61415;55.702;37.460;2022-09-28T00:17:05;62.12;57.92;66.82;;
73206;Laerm;61415;55.702;37.460;2022-09-28T00:17:36;59.60;52.83;64.60;;
73206;Laerm;61415;55.702;37.460;2022-09-28T00:18:07;59.08;52.37;63.09;;
73206;Laerm;61415;55.702;37.460;2022-09-28T00:18:38;51.33;46.85;57.98;;
73206;Laerm;61415;55.702;37.460;2022-09-28T00:19:09;51.68;47.44;59.59;;
73206;Laerm;61415;55.702;37.460;2022-09-28T00:19:40;57.40;50.77;64.95;;
73206;Laerm;61415;55.702;37.460;2022-09-28T00:20:13;62.43;54.62;68.09;;
73206;Laerm;61415;55.702;37.460;2022-09-28T00:20:46;59.15;52.45;64.73;;
73206;Laerm;61415;55.702;37.460;2022-09-28T00:21:21;60.20;53.21;67.71;;
73206;Laerm;61415;55.702;37.460;2022-09-28T00:21:52;60.61;54.97;65.75;;
73206;Laerm;61415;55.702;37.460;2022-09-28T00:22:23;61.20;57.08;68.26;;
73206;Laerm;61415;55.702;37.460;2022-09-28T00:22:53;61.34;56.75;64.47;;
73206;Laerm;61415;55.702;37.460;2022-09-28T00:23:24;60.77;53.92;66.36;;
73206;Laerm;61415;55.702;37.460;2022-09-28T00:23:56;61.09;56.09;65.16;;
73206;Laerm;61415;55.702;37.460;2022-09-28T00:24:42;58.42;53.08;63.70;;
73206;Laerm;61415;55.702;37.460;2022-09-28T00:25:14;59.10;54.59;64.07;;
73206;Laerm;61415;55.702;37.460;2022-09-28T00:25:46;61.23;56.05;67.33;;
73206;Laerm;61415;55.702;37.460;2022-09-28T00:26:17;57.52;51.97;64.77;;
73206;Laerm;61415;55.702;37.460;2022-09-28T00:26:51;56.54;51.58;62.79;;
73206;Laerm;61415;55.702;37.460;2022-09-28T00:27:23;57.58;52.22;65.03;;
73206;Laerm;61415;55.702;37.460;2022-09-28T00:27:54;62.15;53.13;68.90;;
73206;Laerm;61415;55.702;37.460;2022-09-28T00:28:26;58.31;52.38;67.14;;
73206;Laerm;61415;55.702;37.460;2022-09-28T00:28:58;59.29;49.91;65.53;;
73206;Laerm;61415;55.702;37.460;2022-09-28T00:29:30;59.72;54.32;67.20;;
73206;Laerm;61415;55.702;37.460;2022-09-28T00:30:01;64.31;55.04;71.48;;
73206;Laerm;61415;55.702;37.460;2022-09-28T00:30:32;59.43;54.71;63.22;;
73206;Laerm;61415;55.702;37.460;2022-09-28T00:31:02;57.50;52.27;62.82;;
73206;Laerm;61415;55.702;37.460;2022-09-28T00:31:33;57.61;52.78;61.80;;
73206;Laerm;61415;55.702;37.460;2022-09-28T00:32:11;59.05;53.37;65.00;;
73206;Laerm;61415;55.702;37.460;2022-09-28T00:32:43;62.60;52.36;68.46;;
73206;Laerm;61415;55.702;37.460;2022-09-28T00:33:13;61.32;53.23;66.01;;
73206;Laerm;61415;55.702;37.460;2022-09-28T00:33:48;58.19;51.31;63.86;;
73206;Laerm;61415;55.702;37.460;2022-09-28T00:34:18;60.94;53.52;64.85;;
73206;Laerm;61415;55.702;37.460;2022-09-28T00:34:50;60.88;53.62;66.57;;
73206;Laerm;61415;55.702;37.460;2022-09-28T00:35:21;56.31;49.78;62.40;;
73206;Laerm;61415;55.702;37.460;2022-09-28T00:35:55;56.72;52.39;61.03;;
73206;Laerm;61415;55.702;37.460;2022-09-28T00:36:27;55.45;50.47;62.27;;
73206;Laerm;61415;55.702;37.460;2022-09-28T00:36:58;61.51;50.68;71.17;;
73206;Laerm;61415;55.702;37.460;2022-09-28T00:37:29;56.93;49.89;63.34;;
73206;Laerm;61415;55.702;37.460;2022-09-28T00:38:00;56.64;49.83;64.32;;
73206;Laerm;61415;55.702;37.460;2022-09-28T00:38:33;59.43;53.89;65.16;;
73206;Laerm;61415;55.702;37.460;2022-09-28T00:39:05;57.94;52.22;62.41;;
73206;Laerm;61415;55.702;37.460;2022-09-28T00:39:36;59.06;53.92;63.59;;
73206;Laerm;61415;55.702;37.460;2022-09-28T00:40:08;57.80;49.56;63.77;;
73206;Laerm;61415;55.702;37.460;2022-09-28T00:40:38;58.12;49.31;65.72;;
73206;Laerm;61415;55.702;37.460;2022-09-28T00:41:10;62.15;57.98;66.75;;
73206;Laerm;61415;55.702;37.460;2022-09-28T00:41:41;63.12;52.19;69.78;;
73206;Laerm;61415;55.702;37.460;2022-09-28T00:42:43;60.66;55.58;64.21;;
73206;Laerm;61415;55.702;37.460;2022-09-28T00:43:15;58.78;53.19;65.28;;
73206;Laerm;61415;55.702;37.460;2022-09-28T00:43:46;58.77;53.39;63.96;;
73206;Laerm;61415;55.702;37.460;2022-09-28T00:44:54;64.41;56.52;71.66;;
73206;Laerm;61415;55.702;37.460;2022-09-28T00:45:25;62.21;55.15;70.37;;
73206;Laerm;61415;55.702;37.460;2022-09-28T00:46:04;57.76;52.66;64.13;;
73206;Laerm;61415;55.702;37.460;2022-09-28T00:46:36;62.22;58.01;66.40;;
73206;Laerm;61415;55.702;37.460;2022-09-28T00:47:52;58.17;53.22;64.92;;
73206;Laerm;61415;55.702;37.460;2022-09-28T00:48:24;59.71;55.30;64.10;;
73206;Laerm;61415;55.702;37.460;2022-09-28T00:49:04;64.55;56.70;71.21;;
73206;Laerm;61415;55.702;37.460;2022-09-28T00:49:40;68.33;60.59;76.27;;
73206;Laerm;61415;55.702;37.460;2022-09-28T00:50:21;59.86;55.56;66.49;;
73206;Laerm;61415;55.702;37.460;2022-09-28T00:50:54;62.06;56.90;67.60;;
73206;Laerm;61415;55.702;37.460;2022-09-28T00:51:26;60.25;53.94;69.54;;
73206;Laerm;61415;55.702;37.460;2022-09-28T00:51:57;56.03;50.42;61.16;;
73206;Laerm;61415;55.702;37.460;2022-09-28T00:52:32;61.86;52.73;66.24;;
73206;Laerm;61415;55.702;37.460;2022-09-28T00:53:36;65.22;54.95;73.34;;
73206;Laerm;61415;55.702;37.460;2022-09-28T00:54:07;59.88;53.22;64.93;;
73206;Laerm;61415;55.702;37.460;2022-09-28T00:54:40;60.63;52.93;65.34;;
73206;Laerm;61415;55.702;37.460;2022-09-28T00:55:14;64.78;57.87;72.10;;
73206;Laerm;61415;55.702;37.460;2022-09-28T00:55:56;60.49;56.33;66.13;;
73206;Laerm;61415;55.702;37.460;2022-09-28T00:56:28;65.52;56.56;75.30;;
73206;Laerm;61415;55.702;37.460;2022-09-28T00:57:00;59.15;50.21;63.75;;
73206;Laerm;61415;55.702;37.460;2022-09-28T00:57:32;54.93;49.70;59.82;;
73206;Laerm;61415;55.702;37.460;2022-09-28T00:58:04;61.73;54.82;67.75;;
73206;Laerm;61415;55.702;37.460;2022-09-28T00:58:40;59.94;52.95;66.57;;
73206;Laerm;61415;55.702;37.460;2022-09-28T00:59:12;59.74;48.37;69.43;;
73206;Laerm;61415;55.702;37.460;2022-09-28T00:59:44;60.96;55.42;65.77;;
73206;Laerm;61415;55.702;37.460;2022-09-28T01:00:15;61.00;53.79;67.63;;
73206;Laerm;61415;55.702;37.460;2022-09-28T01:00:46;64.73;54.13;70.88;;
73206;Laerm;61415;55.702;37.460;2022-09-28T01:01:17;56.94;52.34;64.37;;
73206;Laerm;61415;55.702;37.460;2022-09-28T01:01:48;57.34;50.81;63.80;;
73206;Laerm;61415;55.702;37.460;2022-09-28T01:02:19;58.93;52.23;65.66;;
73206;Laerm;61415;55.702;37.460;2022-09-28T01:02:50;56.23;51.83;61.81;;
73206;Laerm;61415;55.702;37.460;2022-09-28T01:03:21;61.05;55.12;65.93;;
73206;Laerm;61415;55.702;37.460;2022-09-28T01:03:52;57.30;53.73;62.84;;
73206;Laerm;61415;55.702;37.460;2022-09-28T01:04:23;58.25;52.03;64.40;;
73206;Laerm;61415;55.702;37.460;2022-09-28T01:04:55;64.20;58.69;68.34;;
73206;Laerm;61415;55.702;37.460;2022-09-28T01:05:26;57.04;52.69;62.23;;
73206;Laerm;61415;55.702;37.460;2022-09-28T01:05:58;55.09;51.23;61.14;;
73206;Laerm;61415;55.702;37.460;2022-09-28T01:06:30;62.49;54.52;67.94;;
73206;Laerm;61415;55.702;37.460;2022-09-28T01:07:02;61.82;55.32;66.19;;
73206;Laerm;61415;55.702;37.460;2022-09-28T01:07:33;57.30;52.31;60.58;;
73206;Laerm;61415;55.702;37.460;2022-09-28T01:08:05;59.46;54.17;65.33;;
73206;Laerm;61415;55.702;37.460;2022-09-28T01:08:36;59.66;53.28;64.29;;
73206;Laerm;61415;55.702;37.460;2022-09-28T01:09:08;58.17;51.51;63.48;;
73206;Laerm;61415;55.702;37.460;2022-09-28T01:09:40;58.59;51.65;63.25;;
73206;Laerm;61415;55.702;37.460;2022-09-28T01:10:11;59.28;51.30;64.84;;
73206;Laerm;61415;55.702;37.460;2022-09-28T01:10:42;64.48;56.84;71.76;;
73206;Laerm;61415;55.702;37.460;2022-09-28T01:11:13;59.38;53.53;63.80;;
73206;Laerm;61415;55.702;37.460;2022-09-28T01:11:44;60.47;54.81;63.55;;
73206;Laerm;61415;55.702;37.460;2022-09-28T01:12:15;60.63;51.38;67.77;;
73206;Laerm;61415;55.702;37.460;2022-09-28T01:12:46;58.09;51.17;63.30;;
73206;Laerm;61415;55.702;37.460;2022-09-28T01:13:17;61.18;54.18;65.56;;
73206;Laerm;61415;55.702;37.460;2022-09-28T01:13:49;62.81;54.93;68.64;;
73206;Laerm;61415;55.702;37.460;2022-09-28T01:14:22;58.68;53.06;63.38;;
73206;Laerm;61415;55.702;37.460;2022-09-28T01:14:55;61.25;54.77;67.95;;
73206;Laerm;61415;55.702;37.460;2022-09-28T01:15:27;64.38;59.64;68.84;;
73206;Laerm;61415;55.702;37.460;2022-09-28T01:17:12;61.68;56.56;65.79;;
73206;Laerm;61415;55.702;37.460;2022-09-28T01:18:35;61.84;54.47;68.77;;
73206;Laerm;61415;55.702;37.460;2022-09-28T01:21:19;59.83;52.49;64.54;;
73206;Laerm;61415;55.702;37.460;2022-09-28T01:21:54;57.88;52.31;63.65;;
73206;Laerm;61415;55.702;37.460;2022-09-28T01:27:58;60.87;55.97;65.62;;
73206;Laerm;61415;55.702;37.460;2022-09-28T01:28:33;57.50;51.22;64.68;;
73206;Laerm;61415;55.702;37.460;2022-09-28T01:29:06;59.58;52.28;66.70;;
73206;Laerm;61415;55.702;37.460;2022-09-28T01:30:16;56.97;53.12;61.54;;
73206;Laerm;61415;55.702;37.460;2022-09-28T01:31:25;59.03;51.96;63.17;;
73206;Laerm;61415;55.702;37.460;2022-09-28T01:33:06;62.00;52.91;70.98;;
73206;Laerm;61415;55.702;37.460;2022-09-28T01:34:14;61.01;56.48;64.61;;
73206;Laerm;61415;55.702;37.460;2022-09-28T01:34:37;60.13;55.09;64.87;;
73206;Laerm;61415;55.702;37.460;2022-09-28T01:35:16;60.60;53.24;65.82;;
73206;Laerm;61415;55.702;37.460;2022-09-28T01:35:50;59.68;53.55;63.85;;
73206;Laerm;61415;55.702;37.460;2022-09-28T01:36:35;57.94;54.09;61.98;;
73206;Laerm;61415;55.702;37.460;2022-09-28T01:37:08;59.59;50.61;65.81;;
73206;Laerm;61415;55.702;37.460;2022-09-28T01:38:24;58.02;51.60;61.90;;
73206;Laerm;61415;55.702;37.460;2022-09-28T01:38:48;58.40;51.67;65.57;;
73206;Laerm;61415;55.702;37.460;2022-09-28T01:39:31;64.18;59.40;68.83;;
73206;Laerm;61415;55.702;37.460;2022-09-28T01:40:04;62.53;57.44;67.46;;
73206;Laerm;61415;55.702;37.460;2022-09-28T01:40:36;65.71;58.75;70.61;;
73206;Laerm;61415;55.702;37.460;2022-09-28T01:41:07;59.51;55.46;63.85;;
73206;Laerm;61415;55.702;37.460;2022-09-28T01:41:39;60.89;55.24;64.28;;
73206;Laerm;61415;55.702;37.460;2022-09-28T01:42:12;65.28;56.97;69.95;;
73206;Laerm;61415;55.702;37.460;2022-09-28T01:42:46;64.34;57.75;71.82;;
73206;Laerm;61415;55.702;37.460;2022-09-28T01:43:21;61.75;55.05;68.77;;
73206;Laerm;61415;55.702;37.460;2022-09-28T01:43:54;57.60;53.63;71.66;;
73206;Laerm;61415;55.702;37.460;2022-09-28T01:44:25;62.78;55.33;71.57;;
73206;Laerm;61415;55.702;37.460;2022-09-28T01:44:59;59.09;53.79;67.50;;
73206;Laerm;61415;55.702;37.460;2022-09-28T01:45:52;63.08;54.26;70.98;;
73206;Laerm;61415;55.702;37.460;2022-09-28T01:46:30;64.33;53.01;72.06;;
73206;Laerm;61415;55.702;37.460;2022-09-28T01:47:03;59.71;53.50;68.02;;
73206;Laerm;61415;55.702;37.460;2022-09-28T01:47:35;59.31;54.12;69.50;;
73206;Laerm;61415;55.702;37.460;2022-09-28T01:48:07;61.77;56.27;66.22;;
73206;Laerm;61415;55.702;37.460;2022-09-28T01:48:47;58.35;52.18;65.62;;
73206;Laerm;61415;55.702;37.460;2022-09-28T01:49:20;59.56;52.77;70.67;;
73206;Laerm;61415;55.702;37.460;2022-09-28T01:50:53;60.32;54.10;68.50;;
73206;Laerm;61415;55.702;37.460;2022-09-28T01:51:38;58.65;54.21;70.13;;
73206;Laerm;61415;55.702;37.460;2022-09-28T01:52:12;57.30;51.04;70.29;;
73206;Laerm;61415;55.702;37.460;2022-09-28T01:52:58;60.27;50.95;66.02;;
73206;Laerm;61415;55.702;37.460;2022-09-28T01:53:31;61.48;54.40;67.49;;
73206;Laerm;61415;55.702;37.460;2022-09-28T01:54:10;62.54;56.66;69.65;;
73206;Laerm;61415;55.702;37.460;2022-09-28T01:54:43;63.32;58.62;68.52;;
73206;Laerm;61415;55.702;37.460;2022-09-28T01:55:21;62.27;56.06;69.93;;
73206;Laerm;61415;55.702;37.460;2022-09-28T01:55:56;61.35;56.35;66.03;;
73206;Laerm;61415;55.702;37.460;2022-09-28T01:57:13;61.02;55.22;69.58;;
73206;Laerm;61415;55.702;37.460;2022-09-28T01:57:23;60.04;54.81;71.85;;
73206;Laerm;61415;55.702;37.460;2022-09-28T01:58:00;61.72;55.67;72.67;;
73206;Laerm;61415;55.702;37.460;2022-09-28T01:58:36;60.54;52.89;74.07;;
73206;Laerm;61415;55.702;37.460;2022-09-28T01:59:15;68.91;59.66;79.46;;
73206;Laerm;61415;55.702;37.460;2022-09-28T01:59:52;62.31;56.16;71.36;;
73206;Laerm;61415;55.702;37.460;2022-09-28T02:00:25;57.97;52.04;71.71;;
73206;Laerm;61415;55.702;37.460;2022-09-28T02:01:01;59.45;52.15;65.67;;
73206;Laerm;61415;55.702;37.460;2022-09-28T02:01:44;62.95;57.43;69.52;;
73206;Laerm;61415;55.702;37.460;2022-09-28T02:02:18;58.93;53.42;71.88;;
73206;Laerm;61415;55.702;37.460;2022-09-28T02:02:57;59.12;54.14;63.24;;
73206;Laerm;61415;55.702;37.460;2022-09-28T02:03:40;59.81;54.59;69.10;;
73206;Laerm;61415;55.702;37.460;2022-09-28T02:04:13;63.71;55.61;70.82;;
73206;Laerm;61415;55.702;37.460;2022-09-28T02:04:53;63.43;58.10;72.09;;
73206;Laerm;61415;55.702;37.460;2022-09-28T02:05:59;62.74;56.90;67.00;;
73206;Laerm;61415;55.702;37.460;2022-09-28T02:06:36;58.98;54.26;71.81;;
73206;Laerm;61415;55.702;37.460;2022-09-28T02:07:19;63.94;56.58;71.28;;
73206;Laerm;61415;55.702;37.460;2022-09-28T02:07:53;58.98;53.08;63.08;;
73206;Laerm;61415;55.702;37.460;2022-09-28T02:08:39;64.16;56.20;70.47;;
73206;Laerm;61415;55.702;37.460;2022-09-28T02:09:14;60.01;54.72;70.81;;
73206;Laerm;61415;55.702;37.460;2022-09-28T02:09:50;60.83;56.74;71.91;;
73206;Laerm;61415;55.702;37.460;2022-09-28T02:10:29;59.84;52.88;64.77;;
73206;Laerm;61415;55.702;37.460;2022-09-28T02:11:32;64.69;57.37;71.69;;
73206;Laerm;61415;55.702;37.460;2022-09-28T02:12:11;62.96;52.35;73.18;;
73206;Laerm;61415;55.702;37.460;2022-09-28T02:12:43;65.84;51.60;75.72;;
73206;Laerm;61415;55.702;37.460;2022-09-28T02:14:16;62.63;57.30;67.23;;
73206;Laerm;61415;55.702;37.460;2022-09-28T02:14:48;63.48;59.39;69.36;;
73206;Laerm;61415;55.702;37.460;2022-09-28T02:15:20;62.48;53.74;67.12;;
73206;Laerm;61415;55.702;37.460;2022-09-28T02:15:55;56.65;52.98;61.81;;
73206;Laerm;61415;55.702;37.460;2022-09-28T02:16:59;64.43;55.60;72.57;;
73206;Laerm;61415;55.702;37.460;2022-09-28T02:17:30;64.62;58.94;71.61;;
73206;Laerm;61415;55.702;37.460;2022-09-28T02:18:01;63.55;59.50;73.12;;
73206;Laerm;61415;55.702;37.460;2022-09-28T02:18:32;65.00;59.72;70.50;;
73206;Laerm;61415;55.702;37.460;2022-09-28T02:19:03;63.91;59.10;68.46;;
73206;Laerm;61415;55.702;37.460;2022-09-28T02:19:34;60.74;55.97;71.47;;
73206;Laerm;61415;55.702;37.460;2022-09-28T02:20:06;63.21;57.64;67.17;;
73206;Laerm;61415;55.702;37.460;2022-09-28T02:20:37;67.34;62.04;72.96;;
73206;Laerm;61415;55.702;37.460;2022-09-28T02:21:32;63.79;58.74;67.50;;
73206;Laerm;61415;55.702;37.460;2022-09-28T02:22:53;61.82;54.05;66.27;;
73206;Laerm;61415;55.702;37.460;2022-09-28T02:23:25;60.15;54.41;64.39;;
73206;Laerm;61415;55.702;37.460;2022-09-28T02:23:57;54.83;50.51;67.60;;
73206;Laerm;61415;55.702;37.460;2022-09-28T02:24:40;62.48;52.70;69.70;;
73206;Laerm;61415;55.702;37.460;2022-09-28T02:25:19;62.56;56.31;67.56;;
73206;Laerm;61415;55.702;37.460;2022-09-28T02:25:54;60.83;56.12;66.68;;
73206;Laerm;61415;55.702;37.460;2022-09-28T02:26:29;57.62;53.14;70.67;;
73206;Laerm;61415;55.702;37.460;2022-09-28T02:27:02;60.14;55.96;65.44;;
73206;Laerm;61415;55.702;37.460;2022-09-28T02:28:10;61.75;55.13;69.31;;
73206;Laerm;61415;55.702;37.460;2022-09-28T02:28:41;58.52;54.40;64.84;;
73206;Laerm;61415;55.702;37.460;2022-09-28T02:29:12;64.38;59.50;68.93;;
73206;Laerm;61415;55.702;37.460;2022-09-28T02:29:43;64.42;59.68;69.35;;
73206;Laerm;61415;55.702;37.460;2022-09-28T02:30:14;61.62;53.81;70.73;;
73206;Laerm;61415;55.702;37.460;2022-09-28T02:30:46;62.32;57.76;66.27;;
73206;Laerm;61415;55.702;37.460;2022-09-28T02:31:16;64.51;58.00;72.88;;
73206;Laerm;61415;55.702;37.460;2022-09-28T02:31:48;66.30;60.86;71.26;;
73206;Laerm;61415;55.702;37.460;2022-09-28T02:32:19;61.70;57.10;68.12;;
73206;Laerm;61415;55.702;37.460;2022-09-28T02:32:52;62.14;56.51;71.57;;
73206;Laerm;61415;55.702;37.460;2022-09-28T02:33:28;63.28;58.73;68.17;;
73206;Laerm;61415;55.702;37.460;2022-09-28T02:34:01;63.30;57.93;67.25;;
73206;Laerm;61415;55.702;37.460;2022-09-28T02:34:32;62.59;58.63;67.75;;
73206;Laerm;61415;55.702;37.460;2022-09-28T02:35:11;65.32;58.80;71.80;;
73206;Laerm;61415;55.702;37.460;2022-09-28T02:35:42;63.99;59.73;68.20;;
73206;Laerm;61415;55.702;37.460;2022-09-28T02:36:13;59.39;53.88;73.85;;
73206;Laerm;61415;55.702;37.460;2022-09-28T02:36:45;60.70;54.91;64.74;;
73206;Laerm;61415;55.702;37.460;2022-09-28T02:37:16;57.70;52.53;63.51;;
73206;Laerm;61415;55.702;37.460;2022-09-28T02:37:47;60.68;52.56;69.88;;
73206;Laerm;61415;55.702;37.460;2022-09-28T02:38:18;60.18;52.52;64.96;;
73206;Laerm;61415;55.702;37.460;2022-09-28T02:38:49;59.52;52.51;66.50;;
73206;Laerm;61415;55.702;37.460;2022-09-28T02:39:20;58.96;54.30;63.31;;
73206;Laerm;61415;55.702;37.460;2022-09-28T02:39:51;61.31;54.22;69.12;;
73206;Laerm;61415;55.702;37.460;2022-09-28T02:40:27;65.14;59.68;68.71;;
73206;Laerm;61415;55.702;37.460;2022-09-28T02:41:11;63.26;58.07;68.43;;
73206;Laerm;61415;55.702;37.460;2022-09-28T02:42:57;66.30;58.77;72.40;;
73206;Laerm;61415;55.702;37.460;2022-09-28T02:43:25;63.49;54.88;72.80;;
73206;Laerm;61415;55.702;37.460;2022-09-28T02:46:23;60.77;56.41;65.70;;
73206;Laerm;61415;55.702;37.460;2022-09-28T02:49:47;63.68;58.78;67.03;;
73206;Laerm;61415;55.702;37.460;2022-09-28T02:50:21;63.98;57.79;69.51;;
73206;Laerm;61415;55.702;37.460;2022-09-28T02:51:04;63.00;59.70;67.07;;
73206;Laerm;61415;55.702;37.460;2022-09-28T02:58:18;62.93;56.31;73.48;;
73206;Laerm;61415;55.702;37.460;2022-09-28T02:59:06;64.98;58.47;68.73;;
73206;Laerm;61415;55.702;37.460;2022-09-28T02:59:46;66.79;62.29;72.25;;
73206;Laerm;61415;55.702;37.460;2022-09-28T03:00:20;63.88;59.59;67.74;;
73206;Laerm;61415;55.702;37.460;2022-09-28T03:01:01;61.82;55.94;67.08;;
73206;Laerm;61415;55.702;37.460;2022-09-28T03:03:17;63.92;60.00;67.97;;
73206;Laerm;61415;55.702;37.460;2022-09-28T03:03:56;64.37;60.76;67.58;;
73206;Laerm;61415;55.702;37.460;2022-09-28T03:04:34;62.69;57.43;68.16;;
73206;Laerm;61415;55.702;37.460;2022-09-28T03:05:19;62.77;57.98;67.46;;
73206;Laerm;61415;55.702;37.460;2022-09-28T03:06:12;66.01;57.53;71.23;;
73206;Laerm;61415;55.702;37.460;2022-09-28T03:06:56;65.43;60.34;71.00;;
73206;Laerm;61415;55.702;37.460;2022-09-28T03:07:36;65.06;59.72;69.27;;
73206;Laerm;61415;55.702;37.460;2022-09-28T03:08:19;65.85;61.29;69.64;;
73206;Laerm;61415;55.702;37.460;2022-09-28T03:08:59;66.51;63.02;70.85;;
73206;Laerm;61415;55.702;37.460;2022-09-28T03:09:36;67.40;61.49;72.85;;
73206;Laerm;61415;55.702;37.460;2022-09-28T03:10:14;64.43;60.72;68.04;;
73206;Laerm;61415;55.702;37.460;2022-09-28T03:10:51;65.11;60.10;69.08;;
73206;Laerm;61415;55.702;37.460;2022-09-28T03:11:29;66.11;60.37;70.35;;
73206;Laerm;61415;55.702;37.460;2022-09-28T03:12:11;64.48;58.62;69.42;;
73206;Laerm;61415;55.702;37.460;2022-09-28T03:12:43;65.71;61.40;69.78;;
73206;Laerm;61415;55.702;37.460;2022-09-28T03:13:15;67.59;64.27;71.04;;
73206;Laerm;61415;55.702;37.460;2022-09-28T03:13:47;63.61;58.39;68.83;;
73206;Laerm;61415;55.702;37.460;2022-09-28T03:14:18;63.58;59.74;66.13;;
73206;Laerm;61415;55.702;37.460;2022-09-28T03:15:05;63.94;59.96;67.48;;
73206;Laerm;61415;55.702;37.460;2022-09-28T03:15:37;66.04;60.12;70.53;;
73206;Laerm;61415;55.702;37.460;2022-09-28T03:16:08;66.35;62.08;70.19;;
73206;Laerm;61415;55.702;37.460;2022-09-28T03:16:43;65.31;61.15;70.41;;
73206;Laerm;61415;55.702;37.460;2022-09-28T03:17:14;63.13;58.82;68.25;;
73206;Laerm;61415;55.702;37.460;2022-09-28T03:17:45;66.70;62.77;69.61;;
73206;Laerm;61415;55.702;37.460;2022-09-28T03:18:16;65.62;62.93;68.60;;
73206;Laerm;61415;55.702;37.460;2022-09-28T03:18:47;65.98;60.43;68.80;;
73206;Laerm;61415;55.702;37.460;2022-09-28T03:19:18;64.29;60.56;69.80;;
73206;Laerm;61415;55.702;37.460;2022-09-28T03:19:51;66.20;59.68;70.52;;
73206;Laerm;61415;55.702;37.460;2022-09-28T03:20:22;66.82;61.23;73.63;;
73206;Laerm;61415;55.702;37.460;2022-09-28T03:20:53;65.67;61.11;71.53;;
73206;Laerm;61415;55.702;37.460;2022-09-28T03:21:24;65.25;61.10;68.46;;
73206;Laerm;61415;55.702;37.460;2022-09-28T03:21:54;63.70;58.82;70.73;;
73206;Laerm;61415;55.702;37.460;2022-09-28T03:22:25;67.31;63.57;70.86;;
73206;Laerm;61415;55.702;37.460;2022-09-28T03:22:56;66.81;63.22;70.74;;
73206;Laerm;61415;55.702;37.460;2022-09-28T03:23:27;67.10;63.63;70.38;;
73206;Laerm;61415;55.702;37.460;2022-09-28T03:23:58;68.62;63.63;73.15;;
73206;Laerm;61415;55.702;37.460;2022-09-28T03:24:28;67.24;62.17;71.68;;
73206;Laerm;61415;55.702;37.460;2022-09-28T03:24:59;66.99;63.62;69.44;;
73206;Laerm;61415;55.702;37.460;2022-09-28T03:25:30;66.13;61.43;70.01;;
73206;Laerm;61415;55.702;37.460;2022-09-28T03:26:02;66.92;62.23;70.71;;
73206;Laerm;61415;55.702;37.460;2022-09-28T03:26:33;65.24;61.00;68.01;;
73206;Laerm;61415;55.702;37.460;2022-09-28T03:27:03;67.47;62.88;71.07;;
73206;Laerm;61415;55.702;37.460;2022-09-28T03:27:34;68.35;64.23;72.56;;
73206;Laerm;61415;55.702;37.460;2022-09-28T03:28:05;64.92;61.13;69.06;;
73206;Laerm;61415;55.702;37.460;2022-09-28T03:28:36;64.79;60.88;68.17;;
73206;Laerm;61415;55.702;37.460;2022-09-28T03:29:07;63.39;59.48;67.34;;
73206;Laerm;61415;55.702;37.460;2022-09-28T03:29:38;66.83;63.35;69.78;;
73206;Laerm;61415;55.702;37.460;2022-09-28T03:30:10;68.10;64.75;70.45;;
73206;Laerm;61415;55.702;37.460;2022-09-28T03:30:41;66.31;62.69;69.97;;
73206;Laerm;61415;55.702;37.460;2022-09-28T03:31:12;66.31;61.43;74.39;;
73206;Laerm;61415;55.702;37.460;2022-09-28T03:31:43;67.63;64.38;70.23;;
73206;Laerm;61415;55.702;37.460;2022-09-28T03:32:14;66.30;63.40;70.57;;
73206;Laerm;61415;55.702;37.460;2022-09-28T03:32:45;65.63;61.71;69.80;;
73206;Laerm;61415;55.702;37.460;2022-09-28T03:33:16;66.59;62.26;69.14;;
73206;Laerm;61415;55.702;37.460;2022-09-28T03:33:46;65.91;60.54;73.12;;
73206;Laerm;61415;55.702;37.460;2022-09-28T03:34:17;67.07;63.05;70.74;;
73206;Laerm;61415;55.702;37.460;2022-09-28T03:34:48;67.84;64.92;71.23;;
73206;Laerm;61415;55.702;37.460;2022-09-28T03:35:19;67.26;60.83;71.59;;
73206;Laerm;61415;55.702;37.460;2022-09-28T03:35:49;63.77;58.82;67.88;;
73206;Laerm;61415;55.702;37.460;2022-09-28T03:36:20;67.69;64.53;71.92;;
73206;Laerm;61415;55.702;37.460;2022-09-28T03:36:51;67.55;64.34;70.23;;
73206;Laerm;61415;55.702;37.460;2022-09-28T03:37:22;68.50;64.29;71.67;;
73206;Laerm;61415;55.702;37.460;2022-09-28T03:37:53;67.22;63.92;70.34;;
73206;Laerm;61415;55.702;37.460;2022-09-28T03:38:25;66.50;61.28;70.39;;
73206;Laerm;61415;55.702;37.460;2022-09-28T03:38:55;68.73;65.64;71.19;;
73206;Laerm;61415;55.702;37.460;2022-09-28T03:39:26;66.04;61.41;70.71;;
73206;Laerm;61415;55.702;37.460;2022-09-28T03:39:57;68.99;64.57;72.76;;